sensor_id;sensor_type;location;lat;lon;timestamp;P1;durP1;ratioP1;P2;durP2;ratioP2
53108;SDS011;39007;53.090;6.074;2023-06-10T00:01:37;9.25;;;5.60;;
53108;SDS011;39007;53.090;6.074;2023-06-10T00:04:03;9.38;;;5.20;;
53108;SDS011;39007;53.090;6.074;2023-06-10T00:06:29;10.98;;;5.70;;
53108;SDS011;39007;53.090;6.074;2023-06-10T00:09:01;10.75;;;5.28;;
53108;SDS011;39007;53.090;6.074;2023-06-10T00:11:27;10.82;;;5.53;;
53108;SDS011;39007;53.090;6.074;2023-06-10T00:13:54;10.50;;;5.47;;
53108;SDS011;39007;53.090;6.074;2023-06-10T00:16:20;12.75;;;5.63;;
53108;SDS011;39007;53.090;6.074;2023-06-10T00:18:46;9.05;;;5.03;;
53108;SDS011;39007;53.090;6.074;2023-06-10T00:21:12;9.18;;;5.30;;
53108;SDS011;39007;53.090;6.074;2023-06-10T00:23:38;12.57;;;5.75;;
53108;SDS011;39007;53.090;6.074;2023-06-10T00:26:04;10.70;;;5.75;;
53108;SDS011;39007;53.090;6.074;2023-06-10T00:28:31;7.57;;;5.22;;
53108;SDS011;39007;53.090;6.074;2023-06-10T00:30:57;11.75;;;6.03;;
53108;SDS011;39007;53.090;6.074;2023-06-10T00:33:23;10.15;;;5.47;;
53108;SDS011;39007;53.090;6.074;2023-06-10T00:35:49;10.13;;;5.53;;
53108;SDS011;39007;53.090;6.074;2023-06-10T00:38:15;11.50;;;5.30;;
53108;SDS011;39007;53.090;6.074;2023-06-10T00:40:41;14.20;;;5.63;;
53108;SDS011;39007;53.090;6.074;2023-06-10T00:43:07;10.52;;;5.05;;
53108;SDS011;39007;53.090;6.074;2023-06-10T00:45:33;8.95;;;5.50;;
53108;SDS011;39007;53.090;6.074;2023-06-10T00:48:00;10.70;;;5.45;;
53108;SDS011;39007;53.090;6.074;2023-06-10T00:50:26;11.00;;;5.78;;
53108;SDS011;39007;53.090;6.074;2023-06-10T00:52:53;9.93;;;5.72;;
53108;SDS011;39007;53.090;6.074;2023-06-10T00:55:20;12.93;;;5.85;;
53108;SDS011;39007;53.090;6.074;2023-06-10T00:57:46;12.50;;;5.80;;
53108;SDS011;39007;53.090;6.074;2023-06-10T01:00:16;9.90;;;5.80;;
53108;SDS011;39007;53.090;6.074;2023-06-10T01:02:43;11.48;;;5.40;;
53108;SDS011;39007;53.090;6.074;2023-06-10T01:05:09;12.65;;;5.97;;
53108;SDS011;39007;53.090;6.074;2023-06-10T01:10:22;11.88;;;5.88;;
53108;SDS011;39007;53.090;6.074;2023-06-10T01:12:58;8.98;;;5.53;;
53108;SDS011;39007;53.090;6.074;2023-06-10T01:15:27;10.73;;;5.65;;
53108;SDS011;39007;53.090;6.074;2023-06-10T01:17:55;10.80;;;5.30;;
53108;SDS011;39007;53.090;6.074;2023-06-10T01:20:23;13.65;;;5.57;;
53108;SDS011;39007;53.090;6.074;2023-06-10T01:22:49;14.50;;;6.13;;
53108;SDS011;39007;53.090;6.074;2023-06-10T01:25:16;12.52;;;5.68;;
53108;SDS011;39007;53.090;6.074;2023-06-10T01:27:44;11.70;;;5.82;;
53108;SDS011;39007;53.090;6.074;2023-06-10T01:30:13;10.52;;;5.88;;
53108;SDS011;39007;53.090;6.074;2023-06-10T01:32:43;13.07;;;5.68;;
53108;SDS011;39007;53.090;6.074;2023-06-10T01:35:10;12.13;;;5.70;;
53108;SDS011;39007;53.090;6.074;2023-06-10T01:37:38;12.23;;;5.72;;
53108;SDS011;39007;53.090;6.074;2023-06-10T01:40:05;11.77;;;6.18;;
53108;SDS011;39007;53.090;6.074;2023-06-10T01:42:32;10.57;;;5.82;;
53108;SDS011;39007;53.090;6.074;2023-06-10T01:44:58;11.65;;;5.57;;
53108;SDS011;39007;53.090;6.074;2023-06-10T01:47:24;13.60;;;5.90;;
53108;SDS011;39007;53.090;6.074;2023-06-10T01:49:50;10.40;;;5.32;;
53108;SDS011;39007;53.090;6.074;2023-06-10T01:52:17;15.27;;;5.90;;
53108;SDS011;39007;53.090;6.074;2023-06-10T01:54:43;10.68;;;5.93;;
53108;SDS011;39007;53.090;6.074;2023-06-10T01:57:09;11.73;;;6.13;;
53108;SDS011;39007;53.090;6.074;2023-06-10T01:59:36;11.88;;;5.97;;
53108;SDS011;39007;53.090;6.074;2023-06-10T02:02:03;12.73;;;5.45;;
53108;SDS011;39007;53.090;6.074;2023-06-10T02:04:29;11.88;;;5.70;;
53108;SDS011;39007;53.090;6.074;2023-06-10T02:06:55;9.70;;;5.45;;
53108;SDS011;39007;53.090;6.074;2023-06-10T02:09:22;14.40;;;5.78;;
53108;SDS011;39007;53.090;6.074;2023-06-10T02:11:48;12.13;;;5.85;;
53108;SDS011;39007;53.090;6.074;2023-06-10T02:14:14;9.80;;;5.43;;
53108;SDS011;39007;53.090;6.074;2023-06-10T02:16:40;10.77;;;5.70;;
53108;SDS011;39007;53.090;6.074;2023-06-10T02:19:11;11.25;;;5.65;;
53108;SDS011;39007;53.090;6.074;2023-06-10T02:21:37;12.05;;;6.40;;
53108;SDS011;39007;53.090;6.074;2023-06-10T02:24:04;14.02;;;6.50;;
53108;SDS011;39007;53.090;6.074;2023-06-10T02:26:30;9.00;;;5.60;;
53108;SDS011;39007;53.090;6.074;2023-06-10T02:28:57;13.30;;;5.90;;
53108;SDS011;39007;53.090;6.074;2023-06-10T02:31:23;12.02;;;6.15;;
53108;SDS011;39007;53.090;6.074;2023-06-10T02:33:50;14.05;;;6.53;;
53108;SDS011;39007;53.090;6.074;2023-06-10T02:36:16;12.80;;;6.30;;
53108;SDS011;39007;53.090;6.074;2023-06-10T02:38:42;15.50;;;6.57;;
53108;SDS011;39007;53.090;6.074;2023-06-10T02:41:08;13.85;;;6.43;;
53108;SDS011;39007;53.090;6.074;2023-06-10T02:43:34;12.48;;;6.30;;
53108;SDS011;39007;53.090;6.074;2023-06-10T02:46:01;11.95;;;6.25;;
53108;SDS011;39007;53.090;6.074;2023-06-10T02:48:27;11.45;;;6.10;;
53108;SDS011;39007;53.090;6.074;2023-06-10T02:50:54;16.20;;;6.82;;
53108;SDS011;39007;53.090;6.074;2023-06-10T02:53:21;10.45;;;6.53;;
53108;SDS011;39007;53.090;6.074;2023-06-10T02:55:47;10.35;;;6.45;;
53108;SDS011;39007;53.090;6.074;2023-06-10T02:58:13;11.23;;;6.93;;
53108;SDS011;39007;53.090;6.074;2023-06-10T03:00:40;12.95;;;6.47;;
53108;SDS011;39007;53.090;6.074;2023-06-10T03:03:07;9.98;;;6.70;;
53108;SDS011;39007;53.090;6.074;2023-06-10T03:05:35;13.35;;;6.72;;
53108;SDS011;39007;53.090;6.074;2023-06-10T03:08:01;11.15;;;6.88;;
53108;SDS011;39007;53.090;6.074;2023-06-10T03:10:27;14.85;;;6.78;;
53108;SDS011;39007;53.090;6.074;2023-06-10T03:12:53;13.35;;;7.38;;
53108;SDS011;39007;53.090;6.074;2023-06-10T03:15:20;16.15;;;7.15;;
53108;SDS011;39007;53.090;6.074;2023-06-10T03:17:46;12.00;;;7.38;;
53108;SDS011;39007;53.090;6.074;2023-06-10T03:20:12;12.45;;;7.32;;
53108;SDS011;39007;53.090;6.074;2023-06-10T03:22:40;12.68;;;7.55;;
53108;SDS011;39007;53.090;6.074;2023-06-10T03:25:07;12.98;;;7.60;;
53108;SDS011;39007;53.090;6.074;2023-06-10T03:27:42;14.45;;;7.65;;
53108;SDS011;39007;53.090;6.074;2023-06-10T03:30:09;15.15;;;7.90;;
53108;SDS011;39007;53.090;6.074;2023-06-10T03:32:35;11.80;;;7.40;;
53108;SDS011;39007;53.090;6.074;2023-06-10T03:35:01;14.85;;;7.95;;
53108;SDS011;39007;53.090;6.074;2023-06-10T03:37:27;12.60;;;7.72;;
53108;SDS011;39007;53.090;6.074;2023-06-10T03:39:54;14.95;;;7.75;;
53108;SDS011;39007;53.090;6.074;2023-06-10T03:42:20;12.27;;;7.30;;
53108;SDS011;39007;53.090;6.074;2023-06-10T03:44:46;12.98;;;6.88;;
53108;SDS011;39007;53.090;6.074;2023-06-10T03:47:12;13.15;;;7.78;;
53108;SDS011;39007;53.090;6.074;2023-06-10T03:49:38;13.25;;;7.32;;
53108;SDS011;39007;53.090;6.074;2023-06-10T03:52:05;17.25;;;8.07;;
53108;SDS011;39007;53.090;6.074;2023-06-10T03:54:32;12.55;;;7.00;;
53108;SDS011;39007;53.090;6.074;2023-06-10T03:57:00;10.23;;;6.60;;
53108;SDS011;39007;53.090;6.074;2023-06-10T03:59:27;11.18;;;6.65;;
53108;SDS011;39007;53.090;6.074;2023-06-10T04:01:54;11.82;;;6.70;;
53108;SDS011;39007;53.090;6.074;2023-06-10T04:04:20;15.45;;;6.70;;
53108;SDS011;39007;53.090;6.074;2023-06-10T04:06:46;13.40;;;6.78;;
53108;SDS011;39007;53.090;6.074;2023-06-10T04:09:13;11.35;;;6.40;;
53108;SDS011;39007;53.090;6.074;2023-06-10T04:11:39;12.35;;;6.43;;
53108;SDS011;39007;53.090;6.074;2023-06-10T04:14:05;10.73;;;6.15;;
53108;SDS011;39007;53.090;6.074;2023-06-10T04:16:31;13.40;;;6.43;;
53108;SDS011;39007;53.090;6.074;2023-06-10T04:18:58;9.40;;;5.93;;
53108;SDS011;39007;53.090;6.074;2023-06-10T04:21:25;15.60;;;6.38;;
53108;SDS011;39007;53.090;6.074;2023-06-10T04:23:52;11.68;;;6.82;;
53108;SDS011;39007;53.090;6.074;2023-06-10T04:26:18;11.80;;;6.05;;
53108;SDS011;39007;53.090;6.074;2023-06-10T04:28:44;10.68;;;5.60;;
53108;SDS011;39007;53.090;6.074;2023-06-10T04:31:10;11.98;;;5.60;;
53108;SDS011;39007;53.090;6.074;2023-06-10T04:33:37;10.57;;;6.03;;
53108;SDS011;39007;53.090;6.074;2023-06-10T04:36:03;11.00;;;5.60;;
53108;SDS011;39007;53.090;6.074;2023-06-10T04:38:31;10.27;;;5.90;;
53108;SDS011;39007;53.090;6.074;2023-06-10T04:40:58;13.90;;;6.43;;
53108;SDS011;39007;53.090;6.074;2023-06-10T04:43:24;11.40;;;5.72;;
53108;SDS011;39007;53.090;6.074;2023-06-10T04:45:50;11.82;;;5.90;;
53108;SDS011;39007;53.090;6.074;2023-06-10T04:48:17;11.73;;;5.80;;
53108;SDS011;39007;53.090;6.074;2023-06-10T04:50:43;15.40;;;6.00;;
53108;SDS011;39007;53.090;6.074;2023-06-10T04:53:09;15.38;;;6.35;;
53108;SDS011;39007;53.090;6.074;2023-06-10T04:55:35;12.02;;;6.03;;
53108;SDS011;39007;53.090;6.074;2023-06-10T04:58:01;12.27;;;6.03;;
53108;SDS011;39007;53.090;6.074;2023-06-10T05:00:27;12.45;;;6.53;;
53108;SDS011;39007;53.090;6.074;2023-06-10T05:02:53;13.35;;;6.80;;
53108;SDS011;39007;53.090;6.074;2023-06-10T05:05:21;15.50;;;6.10;;
53108;SDS011;39007;53.090;6.074;2023-06-10T05:07:47;13.27;;;6.28;;
53108;SDS011;39007;53.090;6.074;2023-06-10T05:10:13;21.65;;;7.00;;
53108;SDS011;39007;53.090;6.074;2023-06-10T05:12:40;11.95;;;6.40;;
53108;SDS011;39007;53.090;6.074;2023-06-10T05:15:07;16.27;;;6.75;;
53108;SDS011;39007;53.090;6.074;2023-06-10T05:17:33;12.98;;;6.57;;
53108;SDS011;39007;53.090;6.074;2023-06-10T05:20:02;13.30;;;7.20;;
53108;SDS011;39007;53.090;6.074;2023-06-10T05:22:29;15.10;;;6.93;;
53108;SDS011;39007;53.090;6.074;2023-06-10T05:24:55;16.52;;;7.28;;
53108;SDS011;39007;53.090;6.074;2023-06-10T05:27:21;12.20;;;6.75;;
53108;SDS011;39007;53.090;6.074;2023-06-10T05:29:48;13.77;;;7.18;;
53108;SDS011;39007;53.090;6.074;2023-06-10T05:32:14;14.82;;;7.90;;
53108;SDS011;39007;53.090;6.074;2023-06-10T05:34:40;12.48;;;6.95;;
53108;SDS011;39007;53.090;6.074;2023-06-10T05:37:06;12.68;;;7.40;;
53108;SDS011;39007;53.090;6.074;2023-06-10T05:39:32;15.43;;;7.65;;
53108;SDS011;39007;53.090;6.074;2023-06-10T05:42:02;13.02;;;7.25;;
53108;SDS011;39007;53.090;6.074;2023-06-10T05:44:28;17.52;;;7.10;;
53108;SDS011;39007;53.090;6.074;2023-06-10T05:46:55;13.88;;;6.68;;
53108;SDS011;39007;53.090;6.074;2023-06-10T05:49:21;12.43;;;6.63;;
53108;SDS011;39007;53.090;6.074;2023-06-10T05:51:47;14.70;;;7.40;;
53108;SDS011;39007;53.090;6.074;2023-06-10T05:54:13;11.75;;;5.93;;
53108;SDS011;39007;53.090;6.074;2023-06-10T05:56:39;11.10;;;6.05;;
53108;SDS011;39007;53.090;6.074;2023-06-10T05:59:05;12.38;;;5.95;;
53108;SDS011;39007;53.090;6.074;2023-06-10T06:01:31;15.43;;;6.10;;
53108;SDS011;39007;53.090;6.074;2023-06-10T06:03:57;12.00;;;6.28;;
53108;SDS011;39007;53.090;6.074;2023-06-10T06:06:24;16.73;;;6.30;;
53108;SDS011;39007;53.090;6.074;2023-06-10T06:08:50;11.40;;;6.20;;
53108;SDS011;39007;53.090;6.074;2023-06-10T06:11:16;15.80;;;6.03;;
53108;SDS011;39007;53.090;6.074;2023-06-10T06:13:42;13.35;;;5.88;;
53108;SDS011;39007;53.090;6.074;2023-06-10T06:16:08;13.32;;;5.70;;
53108;SDS011;39007;53.090;6.074;2023-06-10T06:18:34;17.60;;;6.07;;
53108;SDS011;39007;53.090;6.074;2023-06-10T06:21:00;11.65;;;5.45;;
53108;SDS011;39007;53.090;6.074;2023-06-10T06:23:26;12.15;;;5.75;;
53108;SDS011;39007;53.090;6.074;2023-06-10T06:25:52;12.40;;;6.22;;
53108;SDS011;39007;53.090;6.074;2023-06-10T06:28:19;11.90;;;5.47;;
53108;SDS011;39007;53.090;6.074;2023-06-10T06:30:46;11.48;;;5.13;;
53108;SDS011;39007;53.090;6.074;2023-06-10T06:33:12;13.35;;;6.28;;
53108;SDS011;39007;53.090;6.074;2023-06-10T06:35:39;11.90;;;5.47;;
53108;SDS011;39007;53.090;6.074;2023-06-10T06:38:05;14.73;;;5.25;;
53108;SDS011;39007;53.090;6.074;2023-06-10T06:40:31;11.48;;;4.97;;
53108;SDS011;39007;53.090;6.074;2023-06-10T06:42:57;12.10;;;5.50;;
53108;SDS011;39007;53.090;6.074;2023-06-10T06:45:23;12.18;;;5.68;;
53108;SDS011;39007;53.090;6.074;2023-06-10T06:47:49;14.52;;;5.32;;
53108;SDS011;39007;53.090;6.074;2023-06-10T06:50:16;12.60;;;5.15;;
53108;SDS011;39007;53.090;6.074;2023-06-10T06:52:42;10.88;;;4.60;;
53108;SDS011;39007;53.090;6.074;2023-06-10T06:55:08;10.20;;;4.78;;
53108;SDS011;39007;53.090;6.074;2023-06-10T06:57:34;8.95;;;4.72;;
53108;SDS011;39007;53.090;6.074;2023-06-10T07:00:01;15.32;;;5.60;;
53108;SDS011;39007;53.090;6.074;2023-06-10T07:02:28;10.52;;;4.85;;
53108;SDS011;39007;53.090;6.074;2023-06-10T07:04:54;10.40;;;5.00;;
53108;SDS011;39007;53.090;6.074;2023-06-10T07:07:21;11.05;;;4.97;;
53108;SDS011;39007;53.090;6.074;2023-06-10T07:09:47;13.05;;;5.30;;
53108;SDS011;39007;53.090;6.074;2023-06-10T07:12:13;12.43;;;5.25;;
53108;SDS011;39007;53.090;6.074;2023-06-10T07:14:39;11.60;;;5.35;;
53108;SDS011;39007;53.090;6.074;2023-06-10T07:17:05;12.05;;;4.88;;
53108;SDS011;39007;53.090;6.074;2023-06-10T07:19:31;12.18;;;4.78;;
53108;SDS011;39007;53.090;6.074;2023-06-10T07:21:57;10.75;;;4.63;;
53108;SDS011;39007;53.090;6.074;2023-06-10T07:24:23;11.65;;;4.68;;
53108;SDS011;39007;53.090;6.074;2023-06-10T07:26:50;14.55;;;5.07;;
53108;SDS011;39007;53.090;6.074;2023-06-10T07:29:16;11.10;;;4.70;;
53108;SDS011;39007;53.090;6.074;2023-06-10T07:31:42;11.27;;;4.20;;
53108;SDS011;39007;53.090;6.074;2023-06-10T07:34:08;11.00;;;4.32;;
53108;SDS011;39007;53.090;6.074;2023-06-10T07:36:34;11.80;;;4.50;;
53108;SDS011;39007;53.090;6.074;2023-06-10T07:39:01;10.95;;;4.65;;
53108;SDS011;39007;53.090;6.074;2023-06-10T07:41:27;11.50;;;4.35;;
53108;SDS011;39007;53.090;6.074;2023-06-10T07:43:53;9.68;;;4.28;;
53108;SDS011;39007;53.090;6.074;2023-06-10T07:46:21;9.38;;;4.20;;
53108;SDS011;39007;53.090;6.074;2023-06-10T07:48:48;11.70;;;4.60;;
53108;SDS011;39007;53.090;6.074;2023-06-10T07:51:17;12.68;;;5.30;;
53108;SDS011;39007;53.090;6.074;2023-06-10T07:53:43;11.00;;;4.72;;
53108;SDS011;39007;53.090;6.074;2023-06-10T07:56:09;9.75;;;4.10;;
53108;SDS011;39007;53.090;6.074;2023-06-10T07:58:35;10.23;;;4.18;;
53108;SDS011;39007;53.090;6.074;2023-06-10T08:01:01;10.77;;;4.45;;
53108;SDS011;39007;53.090;6.074;2023-06-10T08:03:27;7.30;;;4.22;;
53108;SDS011;39007;53.090;6.074;2023-06-10T08:05:53;9.75;;;4.10;;
53108;SDS011;39007;53.090;6.074;2023-06-10T08:08:19;8.80;;;4.18;;
53108;SDS011;39007;53.090;6.074;2023-06-10T08:10:45;9.82;;;4.75;;
53108;SDS011;39007;53.090;6.074;2023-06-10T08:13:11;9.30;;;4.43;;
53108;SDS011;39007;53.090;6.074;2023-06-10T08:15:38;8.75;;;4.20;;
53108;SDS011;39007;53.090;6.074;2023-06-10T08:18:04;10.93;;;4.22;;
53108;SDS011;39007;53.090;6.074;2023-06-10T08:20:30;9.00;;;4.30;;
53108;SDS011;39007;53.090;6.074;2023-06-10T08:22:57;7.82;;;4.03;;
53108;SDS011;39007;53.090;6.074;2023-06-10T08:25:23;9.30;;;4.30;;
53108;SDS011;39007;53.090;6.074;2023-06-10T08:27:49;7.30;;;3.88;;
53108;SDS011;39007;53.090;6.074;2023-06-10T08:30:17;9.15;;;3.60;;
53108;SDS011;39007;53.090;6.074;2023-06-10T08:32:43;11.93;;;4.68;;
53108;SDS011;39007;53.090;6.074;2023-06-10T08:35:09;8.45;;;3.85;;
53108;SDS011;39007;53.090;6.074;2023-06-10T08:37:35;25.92;;;7.32;;
53108;SDS011;39007;53.090;6.074;2023-06-10T08:40:02;28.65;;;7.22;;
53108;SDS011;39007;53.090;6.074;2023-06-10T08:42:29;10.23;;;4.35;;
53108;SDS011;39007;53.090;6.074;2023-06-10T08:44:58;8.48;;;4.03;;
53108;SDS011;39007;53.090;6.074;2023-06-10T08:47:27;10.35;;;4.18;;
53108;SDS011;39007;53.090;6.074;2023-06-10T08:49:56;7.90;;;4.00;;
53108;SDS011;39007;53.090;6.074;2023-06-10T08:52:26;8.95;;;4.03;;
53108;SDS011;39007;53.090;6.074;2023-06-10T08:55:13;9.05;;;3.97;;
53108;SDS011;39007;53.090;6.074;2023-06-10T08:57:41;11.13;;;4.07;;
53108;SDS011;39007;53.090;6.074;2023-06-10T09:00:09;7.88;;;3.78;;
53108;SDS011;39007;53.090;6.074;2023-06-10T09:02:36;7.53;;;3.88;;
53108;SDS011;39007;53.090;6.074;2023-06-10T09:05:02;12.45;;;4.18;;
53108;SDS011;39007;53.090;6.074;2023-06-10T09:07:29;12.73;;;4.00;;
53108;SDS011;39007;53.090;6.074;2023-06-10T09:10:01;7.50;;;3.90;;
53108;SDS011;39007;53.090;6.074;2023-06-10T09:12:32;6.90;;;3.70;;
53108;SDS011;39007;53.090;6.074;2023-06-10T09:15:00;12.23;;;3.92;;
53108;SDS011;39007;53.090;6.074;2023-06-10T09:17:26;9.27;;;3.78;;
53108;SDS011;39007;53.090;6.074;2023-06-10T09:19:52;8.20;;;3.90;;
53108;SDS011;39007;53.090;6.074;2023-06-10T09:22:22;8.75;;;4.00;;
53108;SDS011;39007;53.090;6.074;2023-06-10T09:24:49;11.95;;;4.18;;
53108;SDS011;39007;53.090;6.074;2023-06-10T09:27:15;9.45;;;3.85;;
53108;SDS011;39007;53.090;6.074;2023-06-10T09:29:48;9.65;;;3.58;;
53108;SDS011;39007;53.090;6.074;2023-06-10T09:32:17;9.77;;;3.78;;
53108;SDS011;39007;53.090;6.074;2023-06-10T09:34:43;7.80;;;3.80;;
53108;SDS011;39007;53.090;6.074;2023-06-10T09:37:09;9.55;;;3.60;;
53108;SDS011;39007;53.090;6.074;2023-06-10T09:39:38;9.95;;;4.32;;
53108;SDS011;39007;53.090;6.074;2023-06-10T09:42:17;9.15;;;3.92;;
53108;SDS011;39007;53.090;6.074;2023-06-10T09:44:48;8.18;;;3.67;;
53108;SDS011;39007;53.090;6.074;2023-06-10T09:47:19;7.85;;;3.58;;
53108;SDS011;39007;53.090;6.074;2023-06-10T09:49:45;10.98;;;3.88;;
53108;SDS011;39007;53.090;6.074;2023-06-10T09:52:11;10.23;;;3.85;;
53108;SDS011;39007;53.090;6.074;2023-06-10T09:54:37;7.90;;;3.95;;
53108;SDS011;39007;53.090;6.074;2023-06-10T09:57:06;8.27;;;3.33;;
53108;SDS011;39007;53.090;6.074;2023-06-10T09:59:37;5.95;;;3.35;;
53108;SDS011;39007;53.090;6.074;2023-06-10T10:02:03;6.70;;;3.45;;
53108;SDS011;39007;53.090;6.074;2023-06-10T10:04:30;8.98;;;3.55;;
53108;SDS011;39007;53.090;6.074;2023-06-10T10:06:56;6.47;;;3.28;;
53108;SDS011;39007;53.090;6.074;2023-06-10T10:09:24;7.40;;;3.20;;
53108;SDS011;39007;53.090;6.074;2023-06-10T10:11:50;6.95;;;3.33;;
53108;SDS011;39007;53.090;6.074;2023-06-10T10:14:17;7.35;;;3.38;;
53108;SDS011;39007;53.090;6.074;2023-06-10T10:16:44;8.02;;;3.40;;
53108;SDS011;39007;53.090;6.074;2023-06-10T10:19:11;6.85;;;3.00;;
53108;SDS011;39007;53.090;6.074;2023-06-10T10:21:44;4.95;;;2.75;;
53108;SDS011;39007;53.090;6.074;2023-06-10T10:24:17;5.70;;;3.17;;
53108;SDS011;39007;53.090;6.074;2023-06-10T10:26:45;7.53;;;2.95;;
53108;SDS011;39007;53.090;6.074;2023-06-10T10:29:29;5.78;;;3.10;;
53108;SDS011;39007;53.090;6.074;2023-06-10T10:31:56;7.53;;;3.10;;
53108;SDS011;39007;53.090;6.074;2023-06-10T10:37:03;9.23;;;3.42;;
53108;SDS011;39007;53.090;6.074;2023-06-10T10:39:30;5.75;;;3.20;;
53108;SDS011;39007;53.090;6.074;2023-06-10T10:41:56;8.68;;;3.17;;
53108;SDS011;39007;53.090;6.074;2023-06-10T10:44:23;6.97;;;2.90;;
53108;SDS011;39007;53.090;6.074;2023-06-10T10:46:49;7.65;;;3.13;;
53108;SDS011;39007;53.090;6.074;2023-06-10T10:49:16;8.15;;;3.22;;
53108;SDS011;39007;53.090;6.074;2023-06-10T10:51:58;6.13;;;3.17;;
53108;SDS011;39007;53.090;6.074;2023-06-10T10:54:31;8.02;;;3.03;;
53108;SDS011;39007;53.090;6.074;2023-06-10T10:57:14;6.20;;;2.90;;
53108;SDS011;39007;53.090;6.074;2023-06-10T11:02:16;8.65;;;3.10;;
53108;SDS011;39007;53.090;6.074;2023-06-10T11:04:46;7.22;;;3.00;;
53108;SDS011;39007;53.090;6.074;2023-06-10T11:07:12;5.82;;;2.92;;
53108;SDS011;39007;53.090;6.074;2023-06-10T11:09:57;9.07;;;2.88;;
53108;SDS011;39007;53.090;6.074;2023-06-10T11:12:23;5.75;;;2.60;;
53108;SDS011;39007;53.090;6.074;2023-06-10T11:14:53;6.97;;;2.97;;
53108;SDS011;39007;53.090;6.074;2023-06-10T11:17:20;9.27;;;3.03;;
53108;SDS011;39007;53.090;6.074;2023-06-10T11:19:46;7.72;;;3.13;;
53108;SDS011;39007;53.090;6.074;2023-06-10T11:22:16;7.05;;;2.60;;
53108;SDS011;39007;53.090;6.074;2023-06-10T11:24:50;8.57;;;3.00;;
53108;SDS011;39007;53.090;6.074;2023-06-10T11:32:37;6.75;;;2.75;;
53108;SDS011;39007;53.090;6.074;2023-06-10T11:35:04;6.90;;;2.70;;
53108;SDS011;39007;53.090;6.074;2023-06-10T11:37:30;6.55;;;2.97;;
53108;SDS011;39007;53.090;6.074;2023-06-10T11:39:56;8.55;;;2.80;;
53108;SDS011;39007;53.090;6.074;2023-06-10T11:42:23;5.95;;;2.90;;
53108;SDS011;39007;53.090;6.074;2023-06-10T11:44:49;5.82;;;2.92;;
53108;SDS011;39007;53.090;6.074;2023-06-10T11:47:16;6.60;;;2.92;;
53108;SDS011;39007;53.090;6.074;2023-06-10T11:49:42;7.22;;;2.72;;
53108;SDS011;39007;53.090;6.074;2023-06-10T11:52:08;7.80;;;2.85;;
53108;SDS011;39007;53.090;6.074;2023-06-10T11:54:35;7.60;;;3.03;;
53108;SDS011;39007;53.090;6.074;2023-06-10T11:57:01;7.93;;;3.10;;
53108;SDS011;39007;53.090;6.074;2023-06-10T11:59:28;6.45;;;2.90;;
53108;SDS011;39007;53.090;6.074;2023-06-10T12:01:55;34.70;;;4.80;;
53108;SDS011;39007;53.090;6.074;2023-06-10T12:04:21;19.10;;;4.60;;
53108;SDS011;39007;53.090;6.074;2023-06-10T12:06:48;8.98;;;3.42;;
53108;SDS011;39007;53.090;6.074;2023-06-10T12:11:41;5.95;;;2.70;;
53108;SDS011;39007;53.090;6.074;2023-06-10T12:14:08;5.30;;;2.70;;
53108;SDS011;39007;53.090;6.074;2023-06-10T12:16:34;6.68;;;2.60;;
53108;SDS011;39007;53.090;6.074;2023-06-10T12:19:01;5.47;;;2.50;;
53108;SDS011;39007;53.090;6.074;2023-06-10T12:21:28;5.45;;;2.70;;
53108;SDS011;39007;53.090;6.074;2023-06-10T12:24:01;7.53;;;2.63;;
53108;SDS011;39007;53.090;6.074;2023-06-10T12:26:37;6.88;;;2.80;;
53108;SDS011;39007;53.090;6.074;2023-06-10T12:29:23;6.15;;;3.17;;
53108;SDS011;39007;53.090;6.074;2023-06-10T12:34:18;7.10;;;3.00;;
53108;SDS011;39007;53.090;6.074;2023-06-10T12:36:48;6.57;;;3.10;;
53108;SDS011;39007;53.090;6.074;2023-06-10T12:39:14;6.38;;;2.90;;
53108;SDS011;39007;53.090;6.074;2023-06-10T12:41:46;6.35;;;2.90;;
53108;SDS011;39007;53.090;6.074;2023-06-10T12:44:13;7.72;;;2.90;;
53108;SDS011;39007;53.090;6.074;2023-06-10T12:46:39;6.68;;;3.20;;
53108;SDS011;39007;53.090;6.074;2023-06-10T12:49:05;5.30;;;2.83;;
53108;SDS011;39007;53.090;6.074;2023-06-10T12:51:31;6.90;;;3.13;;
53108;SDS011;39007;53.090;6.074;2023-06-10T12:53:59;10.13;;;3.20;;
53108;SDS011;39007;53.090;6.074;2023-06-10T12:56:25;7.53;;;2.70;;
53108;SDS011;39007;53.090;6.074;2023-06-10T12:58:51;6.97;;;3.10;;
53108;SDS011;39007;53.090;6.074;2023-06-10T13:01:17;7.65;;;3.30;;
53108;SDS011;39007;53.090;6.074;2023-06-10T13:03:43;7.10;;;2.80;;
53108;SDS011;39007;53.090;6.074;2023-06-10T13:06:09;6.55;;;2.90;;
53108;SDS011;39007;53.090;6.074;2023-06-10T13:08:36;6.43;;;3.03;;
53108;SDS011;39007;53.090;6.074;2023-06-10T13:11:03;9.77;;;3.00;;
53108;SDS011;39007;53.090;6.074;2023-06-10T13:13:29;9.02;;;3.15;;
53108;SDS011;39007;53.090;6.074;2023-06-10T13:15:55;10.00;;;3.13;;
53108;SDS011;39007;53.090;6.074;2023-06-10T13:18:21;7.78;;;3.40;;
53108;SDS011;39007;53.090;6.074;2023-06-10T13:20:47;5.75;;;2.95;;
53108;SDS011;39007;53.090;6.074;2023-06-10T13:23:13;5.32;;;2.88;;
53108;SDS011;39007;53.090;6.074;2023-06-10T13:25:40;8.50;;;3.13;;
53108;SDS011;39007;53.090;6.074;2023-06-10T13:28:09;6.65;;;2.80;;
53108;SDS011;39007;53.090;6.074;2023-06-10T13:30:36;5.65;;;3.00;;
53108;SDS011;39007;53.090;6.074;2023-06-10T13:33:02;9.05;;;4.00;;
53108;SDS011;39007;53.090;6.074;2023-06-10T13:35:28;5.35;;;2.92;;
53108;SDS011;39007;53.090;6.074;2023-06-10T13:37:54;6.82;;;2.75;;
53108;SDS011;39007;53.090;6.074;2023-06-10T13:40:21;5.50;;;3.05;;
53108;SDS011;39007;53.090;6.074;2023-06-10T13:42:47;5.72;;;2.88;;
53108;SDS011;39007;53.090;6.074;2023-06-10T13:45:15;6.55;;;2.85;;
53108;SDS011;39007;53.090;6.074;2023-06-10T13:47:42;8.00;;;2.70;;
53108;SDS011;39007;53.090;6.074;2023-06-10T13:50:08;7.45;;;3.00;;
53108;SDS011;39007;53.090;6.074;2023-06-10T13:52:34;7.63;;;2.70;;
53108;SDS011;39007;53.090;6.074;2023-06-10T13:55:00;9.15;;;3.20;;
53108;SDS011;39007;53.090;6.074;2023-06-10T13:57:26;8.00;;;3.20;;
53108;SDS011;39007;53.090;6.074;2023-06-10T13:59:52;9.07;;;3.22;;
53108;SDS011;39007;53.090;6.074;2023-06-10T14:02:20;7.18;;;2.85;;
53108;SDS011;39007;53.090;6.074;2023-06-10T14:04:46;8.15;;;3.20;;
53108;SDS011;39007;53.090;6.074;2023-06-10T14:07:13;5.45;;;3.03;;
53108;SDS011;39007;53.090;6.074;2023-06-10T14:09:39;6.20;;;2.95;;
53108;SDS011;39007;53.090;6.074;2023-06-10T14:12:05;9.38;;;3.60;;
53108;SDS011;39007;53.090;6.074;2023-06-10T14:14:31;7.13;;;2.97;;
53108;SDS011;39007;53.090;6.074;2023-06-10T14:16:58;7.07;;;3.15;;
53108;SDS011;39007;53.090;6.074;2023-06-10T14:19:24;11.25;;;3.55;;
53108;SDS011;39007;53.090;6.074;2023-06-10T14:21:50;7.43;;;3.50;;
53108;SDS011;39007;53.090;6.074;2023-06-10T14:24:18;11.85;;;3.65;;
53108;SDS011;39007;53.090;6.074;2023-06-10T14:26:44;10.57;;;3.70;;
53108;SDS011;39007;53.090;6.074;2023-06-10T14:29:10;7.88;;;3.55;;
53108;SDS011;39007;53.090;6.074;2023-06-10T14:31:39;8.80;;;3.22;;
53108;SDS011;39007;53.090;6.074;2023-06-10T14:34:05;6.03;;;3.13;;
53108;SDS011;39007;53.090;6.074;2023-06-10T14:36:33;7.00;;;3.25;;
53108;SDS011;39007;53.090;6.074;2023-06-10T14:39:00;11.65;;;3.33;;
53108;SDS011;39007;53.090;6.074;2023-06-10T14:41:26;7.75;;;3.20;;
53108;SDS011;39007;53.090;6.074;2023-06-10T14:43:52;6.13;;;3.00;;
53108;SDS011;39007;53.090;6.074;2023-06-10T14:46:18;7.32;;;3.40;;
53108;SDS011;39007;53.090;6.074;2023-06-10T14:48:46;10.30;;;3.42;;
53108;SDS011;39007;53.090;6.074;2023-06-10T14:51:12;9.50;;;3.70;;
53108;SDS011;39007;53.090;6.074;2023-06-10T14:53:38;7.55;;;3.40;;
53108;SDS011;39007;53.090;6.074;2023-06-10T14:56:04;8.50;;;3.28;;
53108;SDS011;39007;53.090;6.074;2023-06-10T14:58:30;9.27;;;3.60;;